sensor_id;sensor_type;location;lat;lon;timestamp;P1;durP1;ratioP1;P2;durP2;ratioP2
21959;SDS011;11144;43.030;25.108;2022-08-25T00:00:56;12.93;;;5.10;;
21959;SDS011;11144;43.030;25.108;2022-08-25T00:02:29;8.60;;;4.45;;
21959;SDS011;11144;43.030;25.108;2022-08-25T00:04:06;8.60;;;4.63;;
21959;SDS011;11144;43.030;25.108;2022-08-25T00:05:44;6.60;;;4.05;;
21959;SDS011;11144;43.030;25.108;2022-08-25T00:07:20;8.80;;;4.43;;
21959;SDS011;11144;43.030;25.108;2022-08-25T00:08:53;8.25;;;4.38;;
21959;SDS011;11144;43.030;25.108;2022-08-25T00:10:30;7.32;;;3.85;;
21959;SDS011;11144;43.030;25.108;2022-08-25T00:12:05;6.80;;;4.65;;
21959;SDS011;11144;43.030;25.108;2022-08-25T00:13:39;9.07;;;5.10;;
21959;SDS011;11144;43.030;25.108;2022-08-25T00:15:14;5.82;;;3.88;;
21959;SDS011;11144;43.030;25.108;2022-08-25T00:16:49;9.77;;;4.18;;
21959;SDS011;11144;43.030;25.108;2022-08-25T00:18:26;6.10;;;4.15;;
21959;SDS011;11144;43.030;25.108;2022-08-25T00:19:59;8.85;;;4.50;;
21959;SDS011;11144;43.030;25.108;2022-08-25T00:21:33;8.45;;;4.35;;
21959;SDS011;11144;43.030;25.108;2022-08-25T00:23:09;7.00;;;4.00;;
21959;SDS011;11144;43.030;25.108;2022-08-25T00:24:41;7.70;;;4.20;;
21959;SDS011;11144;43.030;25.108;2022-08-25T00:26:16;11.05;;;4.75;;
21959;SDS011;11144;43.030;25.108;2022-08-25T00:27:49;8.50;;;4.28;;
21959;SDS011;11144;43.030;25.108;2022-08-25T00:29:24;5.93;;;3.83;;
21959;SDS011;11144;43.030;25.108;2022-08-25T00:30:58;13.40;;;4.57;;
21959;SDS011;11144;43.030;25.108;2022-08-25T00:32:32;9.75;;;4.22;;
21959;SDS011;11144;43.030;25.108;2022-08-25T00:34:06;6.50;;;4.38;;
21959;SDS011;11144;43.030;25.108;2022-08-25T00:35:42;6.57;;;3.30;;
21959;SDS011;11144;43.030;25.108;2022-08-25T00:37:17;10.38;;;4.43;;
21959;SDS011;11144;43.030;25.108;2022-08-25T00:38:52;7.50;;;4.03;;
21959;SDS011;11144;43.030;25.108;2022-08-25T00:40:26;7.28;;;3.83;;
21959;SDS011;11144;43.030;25.108;2022-08-25T00:42:01;8.18;;;4.40;;
21959;SDS011;11144;43.030;25.108;2022-08-25T00:43:48;8.32;;;3.97;;
21959;SDS011;11144;43.030;25.108;2022-08-25T00:45:25;6.82;;;4.53;;
21959;SDS011;11144;43.030;25.108;2022-08-25T00:46:59;6.57;;;3.78;;
21959;SDS011;11144;43.030;25.108;2022-08-25T00:48:34;8.90;;;4.78;;
21959;SDS011;11144;43.030;25.108;2022-08-25T00:50:09;8.57;;;4.45;;
21959;SDS011;11144;43.030;25.108;2022-08-25T00:51:45;9.73;;;4.30;;
21959;SDS011;11144;43.030;25.108;2022-08-25T00:53:22;6.03;;;4.15;;
21959;SDS011;11144;43.030;25.108;2022-08-25T00:54:58;7.78;;;4.07;;
21959;SDS011;11144;43.030;25.108;2022-08-25T00:56:38;10.57;;;4.35;;
21959;SDS011;11144;43.030;25.108;2022-08-25T00:58:14;6.90;;;4.25;;
21959;SDS011;11144;43.030;25.108;2022-08-25T00:59:49;8.05;;;3.83;;
21959;SDS011;11144;43.030;25.108;2022-08-25T01:01:23;6.25;;;4.35;;
21959;SDS011;11144;43.030;25.108;2022-08-25T01:02:58;9.80;;;4.38;;
21959;SDS011;11144;43.030;25.108;2022-08-25T01:04:32;7.30;;;4.05;;
21959;SDS011;11144;43.030;25.108;2022-08-25T01:06:05;8.55;;;4.40;;
21959;SDS011;11144;43.030;25.108;2022-08-25T01:07:40;8.20;;;4.47;;
21959;SDS011;11144;43.030;25.108;2022-08-25T01:09:16;11.32;;;5.10;;
21959;SDS011;11144;43.030;25.108;2022-08-25T01:10:53;8.68;;;4.32;;
21959;SDS011;11144;43.030;25.108;2022-08-25T01:12:28;12.15;;;4.80;;
21959;SDS011;11144;43.030;25.108;2022-08-25T01:14:03;9.13;;;4.30;;
21959;SDS011;11144;43.030;25.108;2022-08-25T01:15:38;7.20;;;3.97;;
21959;SDS011;11144;43.030;25.108;2022-08-25T01:17:12;6.82;;;4.35;;
21959;SDS011;11144;43.030;25.108;2022-08-25T01:18:47;6.43;;;4.00;;
21959;SDS011;11144;43.030;25.108;2022-08-25T01:20:24;8.98;;;4.78;;
21959;SDS011;11144;43.030;25.108;2022-08-25T01:22:02;7.18;;;3.47;;
21959;SDS011;11144;43.030;25.108;2022-08-25T01:23:36;11.75;;;5.03;;
21959;SDS011;11144;43.030;25.108;2022-08-25T01:25:14;8.88;;;4.10;;
21959;SDS011;11144;43.030;25.108;2022-08-25T01:26:57;9.70;;;4.03;;
21959;SDS011;11144;43.030;25.108;2022-08-25T01:28:32;7.63;;;4.65;;
21959;SDS011;11144;43.030;25.108;2022-08-25T01:30:07;7.85;;;4.78;;
21959;SDS011;11144;43.030;25.108;2022-08-25T01:31:40;8.65;;;4.53;;
21959;SDS011;11144;43.030;25.108;2022-08-25T01:33:13;10.73;;;5.05;;
21959;SDS011;11144;43.030;25.108;2022-08-25T01:34:48;8.13;;;4.80;;
21959;SDS011;11144;43.030;25.108;2022-08-25T01:36:22;10.32;;;5.38;;
21959;SDS011;11144;43.030;25.108;2022-08-25T01:37:57;9.73;;;5.70;;
21959;SDS011;11144;43.030;25.108;2022-08-25T01:39:32;14.18;;;5.20;;
21959;SDS011;11144;43.030;25.108;2022-08-25T01:41:08;9.63;;;5.00;;
21959;SDS011;11144;43.030;25.108;2022-08-25T01:42:42;10.90;;;5.85;;
21959;SDS011;11144;43.030;25.108;2022-08-25T01:44:25;9.65;;;5.13;;
21959;SDS011;11144;43.030;25.108;2022-08-25T01:45:59;7.70;;;5.07;;
21959;SDS011;11144;43.030;25.108;2022-08-25T01:47:34;8.52;;;5.22;;
21959;SDS011;11144;43.030;25.108;2022-08-25T01:49:08;10.15;;;4.80;;
21959;SDS011;11144;43.030;25.108;2022-08-25T01:50:42;6.93;;;4.40;;
21959;SDS011;11144;43.030;25.108;2022-08-25T01:52:18;8.18;;;5.38;;
21959;SDS011;11144;43.030;25.108;2022-08-25T01:53:57;10.93;;;5.93;;
21959;SDS011;11144;43.030;25.108;2022-08-25T01:55:30;8.07;;;5.32;;
21959;SDS011;11144;43.030;25.108;2022-08-25T01:57:22;8.82;;;5.28;;
21959;SDS011;11144;43.030;25.108;2022-08-25T01:58:56;10.15;;;5.88;;
21959;SDS011;11144;43.030;25.108;2022-08-25T02:00:30;19.45;;;5.38;;
21959;SDS011;11144;43.030;25.108;2022-08-25T02:02:03;10.05;;;5.30;;
21959;SDS011;11144;43.030;25.108;2022-08-25T02:03:39;9.50;;;5.10;;
21959;SDS011;11144;43.030;25.108;2022-08-25T02:05:16;12.15;;;6.00;;
21959;SDS011;11144;43.030;25.108;2022-08-25T02:06:54;8.90;;;4.72;;
21959;SDS011;11144;43.030;25.108;2022-08-25T02:08:28;7.85;;;5.30;;
21959;SDS011;11144;43.030;25.108;2022-08-25T02:10:05;12.95;;;4.97;;
21959;SDS011;11144;43.030;25.108;2022-08-25T02:11:41;8.32;;;4.95;;
21959;SDS011;11144;43.030;25.108;2022-08-25T02:13:15;9.65;;;5.03;;
21959;SDS011;11144;43.030;25.108;2022-08-25T02:14:50;10.80;;;4.97;;
21959;SDS011;11144;43.030;25.108;2022-08-25T02:16:24;10.18;;;5.15;;
21959;SDS011;11144;43.030;25.108;2022-08-25T02:18:00;8.13;;;5.05;;
21959;SDS011;11144;43.030;25.108;2022-08-25T02:19:34;10.02;;;5.45;;
21959;SDS011;11144;43.030;25.108;2022-08-25T02:21:08;8.30;;;4.72;;
21959;SDS011;11144;43.030;25.108;2022-08-25T02:22:42;9.15;;;5.50;;
21959;SDS011;11144;43.030;25.108;2022-08-25T02:24:27;9.88;;;4.97;;
21959;SDS011;11144;43.030;25.108;2022-08-25T02:26:03;9.93;;;5.25;;
21959;SDS011;11144;43.030;25.108;2022-08-25T02:27:35;8.98;;;5.47;;
21959;SDS011;11144;43.030;25.108;2022-08-25T02:29:09;9.40;;;4.85;;
21959;SDS011;11144;43.030;25.108;2022-08-25T02:30:43;8.77;;;5.20;;
21959;SDS011;11144;43.030;25.108;2022-08-25T02:32:18;10.93;;;5.10;;
21959;SDS011;11144;43.030;25.108;2022-08-25T02:33:52;9.85;;;4.95;;
21959;SDS011;11144;43.030;25.108;2022-08-25T02:35:26;9.60;;;4.85;;
21959;SDS011;11144;43.030;25.108;2022-08-25T02:37:00;9.63;;;4.90;;
21959;SDS011;11144;43.030;25.108;2022-08-25T02:38:34;9.57;;;5.45;;
21959;SDS011;11144;43.030;25.108;2022-08-25T02:40:07;10.80;;;4.82;;
21959;SDS011;11144;43.030;25.108;2022-08-25T02:41:43;12.15;;;5.43;;
21959;SDS011;11144;43.030;25.108;2022-08-25T02:43:17;8.98;;;5.35;;
21959;SDS011;11144;43.030;25.108;2022-08-25T02:44:51;9.77;;;5.68;;
21959;SDS011;11144;43.030;25.108;2022-08-25T02:46:24;8.77;;;4.97;;
21959;SDS011;11144;43.030;25.108;2022-08-25T02:47:58;18.58;;;5.72;;
21959;SDS011;11144;43.030;25.108;2022-08-25T02:49:31;11.50;;;5.80;;
21959;SDS011;11144;43.030;25.108;2022-08-25T02:51:05;11.70;;;5.03;;
21959;SDS011;11144;43.030;25.108;2022-08-25T02:52:39;6.72;;;4.82;;
21959;SDS011;11144;43.030;25.108;2022-08-25T02:54:14;9.02;;;5.70;;
21959;SDS011;11144;43.030;25.108;2022-08-25T02:55:47;8.23;;;5.13;;
21959;SDS011;11144;43.030;25.108;2022-08-25T02:57:21;13.07;;;5.25;;
21959;SDS011;11144;43.030;25.108;2022-08-25T02:58:55;9.10;;;5.25;;
21959;SDS011;11144;43.030;25.108;2022-08-25T03:00:28;9.00;;;5.05;;
21959;SDS011;11144;43.030;25.108;2022-08-25T03:02:02;8.32;;;5.00;;
21959;SDS011;11144;43.030;25.108;2022-08-25T03:03:36;25.23;;;15.73;;
21959;SDS011;11144;43.030;25.108;2022-08-25T03:05:14;42.05;;;25.80;;
21959;SDS011;11144;43.030;25.108;2022-08-25T03:06:48;28.48;;;16.58;;
21959;SDS011;11144;43.030;25.108;2022-08-25T03:08:23;12.55;;;6.63;;
21959;SDS011;11144;43.030;25.108;2022-08-25T03:09:58;39.78;;;23.08;;
21959;SDS011;11144;43.030;25.108;2022-08-25T03:11:31;15.35;;;8.07;;
21959;SDS011;11144;43.030;25.108;2022-08-25T03:13:06;13.45;;;5.88;;
21959;SDS011;11144;43.030;25.108;2022-08-25T03:14:39;10.98;;;6.43;;
21959;SDS011;11144;43.030;25.108;2022-08-25T03:16:15;20.88;;;9.77;;
21959;SDS011;11144;43.030;25.108;2022-08-25T03:17:50;14.23;;;7.07;;
21959;SDS011;11144;43.030;25.108;2022-08-25T03:19:25;9.38;;;6.22;;
21959;SDS011;11144;43.030;25.108;2022-08-25T03:20:59;7.85;;;5.10;;
21959;SDS011;11144;43.030;25.108;2022-08-25T03:22:34;9.05;;;5.20;;
21959;SDS011;11144;43.030;25.108;2022-08-25T03:24:08;10.50;;;5.30;;
21959;SDS011;11144;43.030;25.108;2022-08-25T03:25:42;8.82;;;5.15;;
21959;SDS011;11144;43.030;25.108;2022-08-25T03:27:33;12.25;;;5.57;;
21959;SDS011;11144;43.030;25.108;2022-08-25T03:29:07;8.40;;;5.57;;
21959;SDS011;11144;43.030;25.108;2022-08-25T03:30:41;13.60;;;5.70;;
21959;SDS011;11144;43.030;25.108;2022-08-25T03:32:16;13.20;;;6.28;;
21959;SDS011;11144;43.030;25.108;2022-08-25T03:33:51;11.68;;;5.30;;
21959;SDS011;11144;43.030;25.108;2022-08-25T03:35:24;24.83;;;15.90;;
21959;SDS011;11144;43.030;25.108;2022-08-25T03:37:00;13.63;;;6.60;;
21959;SDS011;11144;43.030;25.108;2022-08-25T03:38:36;9.38;;;5.78;;
21959;SDS011;11144;43.030;25.108;2022-08-25T03:40:11;9.15;;;5.75;;
21959;SDS011;11144;43.030;25.108;2022-08-25T03:41:50;9.48;;;5.15;;
21959;SDS011;11144;43.030;25.108;2022-08-25T03:43:25;10.80;;;5.90;;
21959;SDS011;11144;43.030;25.108;2022-08-25T03:45:04;13.13;;;6.45;;
21959;SDS011;11144;43.030;25.108;2022-08-25T03:46:39;9.95;;;5.68;;
21959;SDS011;11144;43.030;25.108;2022-08-25T03:48:16;12.18;;;5.13;;
21959;SDS011;11144;43.030;25.108;2022-08-25T03:49:50;9.93;;;6.00;;
21959;SDS011;11144;43.030;25.108;2022-08-25T03:51:25;8.98;;;5.28;;
21959;SDS011;11144;43.030;25.108;2022-08-25T03:53:00;8.30;;;5.25;;
21959;SDS011;11144;43.030;25.108;2022-08-25T03:54:34;10.98;;;5.82;;
21959;SDS011;11144;43.030;25.108;2022-08-25T03:56:07;10.10;;;5.40;;
21959;SDS011;11144;43.030;25.108;2022-08-25T03:57:42;9.20;;;5.75;;
21959;SDS011;11144;43.030;25.108;2022-08-25T03:59:16;9.15;;;5.95;;
21959;SDS011;11144;43.030;25.108;2022-08-25T04:00:52;9.60;;;5.00;;
21959;SDS011;11144;43.030;25.108;2022-08-25T04:02:27;12.15;;;6.03;;
21959;SDS011;11144;43.030;25.108;2022-08-25T04:04:05;11.55;;;5.35;;
21959;SDS011;11144;43.030;25.108;2022-08-25T04:05:40;10.23;;;5.40;;
21959;SDS011;11144;43.030;25.108;2022-08-25T04:07:13;10.07;;;5.75;;
21959;SDS011;11144;43.030;25.108;2022-08-25T04:08:47;13.00;;;6.05;;
21959;SDS011;11144;43.030;25.108;2022-08-25T04:10:24;8.95;;;5.78;;
21959;SDS011;11144;43.030;25.108;2022-08-25T04:11:57;8.82;;;5.10;;
21959;SDS011;11144;43.030;25.108;2022-08-25T04:13:30;7.70;;;5.18;;
21959;SDS011;11144;43.030;25.108;2022-08-25T04:15:04;9.05;;;5.40;;
21959;SDS011;11144;43.030;25.108;2022-08-25T04:16:42;10.45;;;5.55;;
21959;SDS011;11144;43.030;25.108;2022-08-25T04:18:16;10.18;;;4.38;;
21959;SDS011;11144;43.030;25.108;2022-08-25T04:19:50;10.30;;;5.95;;
21959;SDS011;11144;43.030;25.108;2022-08-25T04:21:24;8.23;;;4.60;;
21959;SDS011;11144;43.030;25.108;2022-08-25T04:22:59;9.32;;;4.78;;
21959;SDS011;11144;43.030;25.108;2022-08-25T04:24:33;10.10;;;4.90;;
21959;SDS011;11144;43.030;25.108;2022-08-25T04:26:09;7.45;;;4.72;;
21959;SDS011;11144;43.030;25.108;2022-08-25T04:27:44;13.38;;;5.32;;
21959;SDS011;11144;43.030;25.108;2022-08-25T04:29:20;10.40;;;5.30;;
21959;SDS011;11144;43.030;25.108;2022-08-25T04:30:55;12.30;;;5.32;;
21959;SDS011;11144;43.030;25.108;2022-08-25T04:32:31;10.98;;;4.80;;
21959;SDS011;11144;43.030;25.108;2022-08-25T04:34:04;9.45;;;5.28;;
21959;SDS011;11144;43.030;25.108;2022-08-25T04:35:59;10.30;;;4.95;;
21959;SDS011;11144;43.030;25.108;2022-08-25T04:37:32;9.68;;;5.13;;
21959;SDS011;11144;43.030;25.108;2022-08-25T04:39:06;8.43;;;5.10;;
21959;SDS011;11144;43.030;25.108;2022-08-25T04:40:41;11.55;;;5.55;;
21959;SDS011;11144;43.030;25.108;2022-08-25T04:42:15;8.25;;;4.78;;
21959;SDS011;11144;43.030;25.108;2022-08-25T04:43:48;9.27;;;5.00;;
21959;SDS011;11144;43.030;25.108;2022-08-25T04:45:23;10.45;;;4.93;;
21959;SDS011;11144;43.030;25.108;2022-08-25T04:46:57;9.23;;;5.03;;
21959;SDS011;11144;43.030;25.108;2022-08-25T04:48:33;7.85;;;5.05;;
21959;SDS011;11144;43.030;25.108;2022-08-25T04:50:07;12.32;;;5.25;;
21959;SDS011;11144;43.030;25.108;2022-08-25T04:51:42;8.32;;;4.68;;
21959;SDS011;11144;43.030;25.108;2022-08-25T04:53:17;8.82;;;5.10;;
21959;SDS011;11144;43.030;25.108;2022-08-25T04:54:53;10.38;;;5.05;;
21959;SDS011;11144;43.030;25.108;2022-08-25T04:56:27;8.05;;;4.32;;
21959;SDS011;11144;43.030;25.108;2022-08-25T04:58:00;8.52;;;5.10;;
21959;SDS011;11144;43.030;25.108;2022-08-25T04:59:34;7.80;;;4.70;;
21959;SDS011;11144;43.030;25.108;2022-08-25T05:01:10;9.60;;;5.43;;
21959;SDS011;11144;43.030;25.108;2022-08-25T05:02:46;8.25;;;4.72;;
21959;SDS011;11144;43.030;25.108;2022-08-25T05:04:21;9.00;;;4.50;;
21959;SDS011;11144;43.030;25.108;2022-08-25T05:05:59;6.40;;;4.90;;
21959;SDS011;11144;43.030;25.108;2022-08-25T05:07:34;7.82;;;4.40;;
21959;SDS011;11144;43.030;25.108;2022-08-25T05:09:09;10.35;;;5.35;;
21959;SDS011;11144;43.030;25.108;2022-08-25T05:10:43;11.35;;;4.93;;
21959;SDS011;11144;43.030;25.108;2022-08-25T05:12:16;10.68;;;4.32;;
21959;SDS011;11144;43.030;25.108;2022-08-25T05:13:52;12.35;;;5.32;;
21959;SDS011;11144;43.030;25.108;2022-08-25T05:15:28;6.47;;;4.45;;
21959;SDS011;11144;43.030;25.108;2022-08-25T05:17:21;6.82;;;4.82;;
21959;SDS011;11144;43.030;25.108;2022-08-25T05:18:55;7.25;;;4.30;;
21959;SDS011;11144;43.030;25.108;2022-08-25T05:20:30;8.93;;;4.38;;
21959;SDS011;11144;43.030;25.108;2022-08-25T05:22:04;8.75;;;4.97;;
21959;SDS011;11144;43.030;25.108;2022-08-25T05:23:38;8.32;;;4.35;;
21959;SDS011;11144;43.030;25.108;2022-08-25T05:25:11;10.57;;;5.25;;
21959;SDS011;11144;43.030;25.108;2022-08-25T05:26:46;8.93;;;5.07;;
21959;SDS011;11144;43.030;25.108;2022-08-25T05:28:21;8.70;;;4.70;;
21959;SDS011;11144;43.030;25.108;2022-08-25T05:29:55;10.55;;;5.28;;
21959;SDS011;11144;43.030;25.108;2022-08-25T05:31:29;7.43;;;5.03;;
21959;SDS011;11144;43.030;25.108;2022-08-25T05:33:06;7.55;;;4.10;;
21959;SDS011;11144;43.030;25.108;2022-08-25T05:34:42;9.13;;;4.15;;
21959;SDS011;11144;43.030;25.108;2022-08-25T05:36:17;7.53;;;4.40;;
21959;SDS011;11144;43.030;25.108;2022-08-25T05:37:53;9.77;;;4.70;;
21959;SDS011;11144;43.030;25.108;2022-08-25T05:39:28;8.57;;;4.75;;
21959;SDS011;11144;43.030;25.108;2022-08-25T05:41:04;8.98;;;3.90;;
21959;SDS011;11144;43.030;25.108;2022-08-25T05:42:40;7.00;;;3.72;;
21959;SDS011;11144;43.030;25.108;2022-08-25T05:44:14;10.27;;;4.32;;
21959;SDS011;11144;43.030;25.108;2022-08-25T05:45:52;7.95;;;3.80;;
21959;SDS011;11144;43.030;25.108;2022-08-25T05:47:25;6.70;;;3.63;;
21959;SDS011;11144;43.030;25.108;2022-08-25T05:48:59;5.15;;;3.90;;
21959;SDS011;11144;43.030;25.108;2022-08-25T05:50:32;8.82;;;3.90;;
21959;SDS011;11144;43.030;25.108;2022-08-25T05:52:07;9.40;;;3.88;;
21959;SDS011;11144;43.030;25.108;2022-08-25T05:53:44;4.80;;;3.58;;
21959;SDS011;11144;43.030;25.108;2022-08-25T05:55:19;7.45;;;4.28;;
21959;SDS011;11144;43.030;25.108;2022-08-25T05:56:53;8.48;;;3.80;;
21959;SDS011;11144;43.030;25.108;2022-08-25T05:58:28;7.63;;;3.33;;
21959;SDS011;11144;43.030;25.108;2022-08-25T06:00:04;4.18;;;3.20;;
21959;SDS011;11144;43.030;25.108;2022-08-25T06:01:45;6.65;;;3.53;;
21959;SDS011;11144;43.030;25.108;2022-08-25T06:03:38;10.00;;;3.88;;
21959;SDS011;11144;43.030;25.108;2022-08-25T06:05:13;6.70;;;3.50;;
21959;SDS011;11144;43.030;25.108;2022-08-25T06:06:49;6.22;;;3.78;;
21959;SDS011;11144;43.030;25.108;2022-08-25T06:08:26;5.40;;;3.67;;
21959;SDS011;11144;43.030;25.108;2022-08-25T06:10:03;4.53;;;2.65;;
21959;SDS011;11144;43.030;25.108;2022-08-25T06:11:38;7.57;;;3.33;;
21959;SDS011;11144;43.030;25.108;2022-08-25T06:13:13;4.95;;;3.40;;
21959;SDS011;11144;43.030;25.108;2022-08-25T06:14:49;6.07;;;3.47;;
21959;SDS011;11144;43.030;25.108;2022-08-25T06:16:24;6.22;;;4.00;;
21959;SDS011;11144;43.030;25.108;2022-08-25T06:18:00;4.25;;;3.55;;
21959;SDS011;11144;43.030;25.108;2022-08-25T06:19:34;7.35;;;3.58;;
21959;SDS011;11144;43.030;25.108;2022-08-25T06:21:12;6.53;;;3.45;;
21959;SDS011;11144;43.030;25.108;2022-08-25T06:22:48;5.03;;;3.47;;
21959;SDS011;11144;43.030;25.108;2022-08-25T06:24:25;5.53;;;3.97;;
21959;SDS011;11144;43.030;25.108;2022-08-25T06:25:59;7.60;;;3.40;;
21959;SDS011;11144;43.030;25.108;2022-08-25T06:27:33;6.78;;;3.90;;
21959;SDS011;11144;43.030;25.108;2022-08-25T06:29:09;6.38;;;3.97;;
21959;SDS011;11144;43.030;25.108;2022-08-25T06:30:44;8.65;;;4.00;;
21959;SDS011;11144;43.030;25.108;2022-08-25T06:32:18;8.20;;;4.03;;
21959;SDS011;11144;43.030;25.108;2022-08-25T06:33:51;6.55;;;4.05;;
21959;SDS011;11144;43.030;25.108;2022-08-25T06:35:25;5.13;;;3.28;;
21959;SDS011;11144;43.030;25.108;2022-08-25T06:36:59;9.23;;;4.32;;
21959;SDS011;11144;43.030;25.108;2022-08-25T06:38:33;5.22;;;3.55;;
21959;SDS011;11144;43.030;25.108;2022-08-25T06:40:09;8.23;;;3.85;;
21959;SDS011;11144;43.030;25.108;2022-08-25T06:41:44;7.95;;;3.97;;
21959;SDS011;11144;43.030;25.108;2022-08-25T06:43:17;7.22;;;3.42;;
21959;SDS011;11144;43.030;25.108;2022-08-25T06:44:51;6.25;;;3.55;;
21959;SDS011;11144;43.030;25.108;2022-08-25T06:46:25;8.05;;;3.55;;
21959;SDS011;11144;43.030;25.108;2022-08-25T06:48:07;8.13;;;4.75;;
21959;SDS011;11144;43.030;25.108;2022-08-25T06:49:41;7.15;;;3.80;;
21959;SDS011;11144;43.030;25.108;2022-08-25T06:51:15;6.82;;;3.67;;
21959;SDS011;11144;43.030;25.108;2022-08-25T06:52:50;5.18;;;3.63;;
21959;SDS011;11144;43.030;25.108;2022-08-25T06:54:24;6.30;;;3.85;;
21959;SDS011;11144;43.030;25.108;2022-08-25T06:55:59;8.18;;;3.25;;
21959;SDS011;11144;43.030;25.108;2022-08-25T06:57:37;8.57;;;3.63;;
21959;SDS011;11144;43.030;25.108;2022-08-25T06:59:10;7.05;;;3.72;;
21959;SDS011;11144;43.030;25.108;2022-08-25T07:00:44;6.65;;;4.20;;
21959;SDS011;11144;43.030;25.108;2022-08-25T07:02:17;5.85;;;4.10;;
21959;SDS011;11144;43.030;25.108;2022-08-25T07:03:53;6.43;;;3.42;;
21959;SDS011;11144;43.030;25.108;2022-08-25T07:05:28;7.93;;;3.78;;
21959;SDS011;11144;43.030;25.108;2022-08-25T07:07:14;6.10;;;3.40;;
21959;SDS011;11144;43.030;25.108;2022-08-25T07:08:47;5.50;;;3.33;;
21959;SDS011;11144;43.030;25.108;2022-08-25T07:10:21;7.20;;;3.63;;
21959;SDS011;11144;43.030;25.108;2022-08-25T07:11:57;5.40;;;3.28;;
21959;SDS011;11144;43.030;25.108;2022-08-25T07:13:33;8.02;;;3.17;;
21959;SDS011;11144;43.030;25.108;2022-08-25T07:15:07;9.13;;;3.30;;
21959;SDS011;11144;43.030;25.108;2022-08-25T07:16:50;6.78;;;2.95;;
21959;SDS011;11144;43.030;25.108;2022-08-25T07:18:23;5.30;;;3.72;;
21959;SDS011;11144;43.030;25.108;2022-08-25T07:19:58;3.40;;;2.33;;
21959;SDS011;11144;43.030;25.108;2022-08-25T07:21:32;11.35;;;3.25;;
21959;SDS011;11144;43.030;25.108;2022-08-25T07:23:07;8.68;;;3.47;;
21959;SDS011;11144;43.030;25.108;2022-08-25T07:24:41;3.92;;;2.88;;
21959;SDS011;11144;43.030;25.108;2022-08-25T07:26:16;9.38;;;4.35;;
21959;SDS011;11144;43.030;25.108;2022-08-25T07:28:09;6.80;;;3.15;;
21959;SDS011;11144;43.030;25.108;2022-08-25T07:29:42;6.40;;;3.63;;
21959;SDS011;11144;43.030;25.108;2022-08-25T07:31:17;7.28;;;3.03;;
21959;SDS011;11144;43.030;25.108;2022-08-25T07:32:57;6.80;;;3.30;;
21959;SDS011;11144;43.030;25.108;2022-08-25T07:34:36;7.05;;;3.65;;
21959;SDS011;11144;43.030;25.108;2022-08-25T07:36:28;7.00;;;3.20;;
21959;SDS011;11144;43.030;25.108;2022-08-25T07:38:03;4.70;;;3.00;;
21959;SDS011;11144;43.030;25.108;2022-08-25T07:39:42;6.65;;;2.85;;
21959;SDS011;11144;43.030;25.108;2022-08-25T07:41:16;6.03;;;2.92;;
21959;SDS011;11144;43.030;25.108;2022-08-25T07:42:50;5.90;;;3.83;;
21959;SDS011;11144;43.030;25.108;2022-08-25T07:44:26;7.10;;;3.03;;
21959;SDS011;11144;43.030;25.108;2022-08-25T07:46:00;10.65;;;3.08;;
21959;SDS011;11144;43.030;25.108;2022-08-25T07:47:38;8.23;;;3.47;;
21959;SDS011;11144;43.030;25.108;2022-08-25T07:49:12;9.57;;;3.10;;
21959;SDS011;11144;43.030;25.108;2022-08-25T07:50:47;8.93;;;2.92;;
21959;SDS011;11144;43.030;25.108;2022-08-25T07:52:21;6.93;;;3.67;;
21959;SDS011;11144;43.030;25.108;2022-08-25T07:53:56;6.60;;;3.13;;
21959;SDS011;11144;43.030;25.108;2022-08-25T07:55:32;8.93;;;3.75;;
21959;SDS011;11144;43.030;25.108;2022-08-25T07:57:07;6.75;;;3.15;;
21959;SDS011;11144;43.030;25.108;2022-08-25T07:58:41;5.05;;;2.80;;
21959;SDS011;11144;43.030;25.108;2022-08-25T08:00:17;8.27;;;3.78;;
21959;SDS011;11144;43.030;25.108;2022-08-25T08:01:51;6.38;;;2.55;;
21959;SDS011;11144;43.030;25.108;2022-08-25T08:03:24;3.53;;;2.60;;
21959;SDS011;11144;43.030;25.108;2022-08-25T08:05:18;9.73;;;3.45;;
21959;SDS011;11144;43.030;25.108;2022-08-25T08:06:54;8.13;;;2.75;;
21959;SDS011;11144;43.030;25.108;2022-08-25T08:08:28;6.78;;;3.15;;
21959;SDS011;11144;43.030;25.108;2022-08-25T08:10:03;6.82;;;3.25;;
21959;SDS011;11144;43.030;25.108;2022-08-25T08:11:58;10.68;;;2.83;;
21959;SDS011;11144;43.030;25.108;2022-08-25T08:13:32;5.80;;;2.63;;
21959;SDS011;11144;43.030;25.108;2022-08-25T08:15:12;6.85;;;3.17;;
21959;SDS011;11144;43.030;25.108;2022-08-25T08:16:47;6.15;;;2.63;;
21959;SDS011;11144;43.030;25.108;2022-08-25T08:18:21;4.97;;;2.70;;
21959;SDS011;11144;43.030;25.108;2022-08-25T08:19:55;4.80;;;2.47;;
21959;SDS011;11144;43.030;25.108;2022-08-25T08:21:30;4.43;;;2.80;;
21959;SDS011;11144;43.030;25.108;2022-08-25T08:23:05;6.70;;;2.78;;
21959;SDS011;11144;43.030;25.108;2022-08-25T08:24:38;6.00;;;3.13;;
21959;SDS011;11144;43.030;25.108;2022-08-25T08:26:24;6.82;;;2.30;;
21959;SDS011;11144;43.030;25.108;2022-08-25T08:28:19;4.90;;;2.60;;
21959;SDS011;11144;43.030;25.108;2022-08-25T08:29:54;5.95;;;2.38;;
21959;SDS011;11144;43.030;25.108;2022-08-25T08:31:27;4.68;;;2.38;;
21959;SDS011;11144;43.030;25.108;2022-08-25T08:33:04;6.25;;;2.50;;
21959;SDS011;11144;43.030;25.108;2022-08-25T08:34:42;10.60;;;2.40;;
21959;SDS011;11144;43.030;25.108;2022-08-25T08:36:17;7.20;;;2.70;;
21959;SDS011;11144;43.030;25.108;2022-08-25T08:37:55;3.75;;;2.75;;
21959;SDS011;11144;43.030;25.108;2022-08-25T08:39:30;6.45;;;1.90;;
21959;SDS011;11144;43.030;25.108;2022-08-25T08:41:06;6.00;;;2.65;;
21959;SDS011;11144;43.030;25.108;2022-08-25T08:43:27;6.13;;;2.10;;
21959;SDS011;11144;43.030;25.108;2022-08-25T08:45:10;4.65;;;2.15;;
21959;SDS011;11144;43.030;25.108;2022-08-25T08:46:57;5.03;;;2.00;;
21959;SDS011;11144;43.030;25.108;2022-08-25T08:48:43;9.93;;;2.58;;
21959;SDS011;11144;43.030;25.108;2022-08-25T08:50:29;4.72;;;2.58;;
21959;SDS011;11144;43.030;25.108;2022-08-25T08:52:08;5.10;;;2.25;;
21959;SDS011;11144;43.030;25.108;2022-08-25T08:53:46;6.07;;;2.45;;
21959;SDS011;11144;43.030;25.108;2022-08-25T08:55:29;6.18;;;2.55;;
21959;SDS011;11144;43.030;25.108;2022-08-25T08:57:07;5.47;;;2.28;;
21959;SDS011;11144;43.030;25.108;2022-08-25T08:58:45;6.68;;;2.30;;
21959;SDS011;11144;43.030;25.108;2022-08-25T09:00:21;7.40;;;2.20;;
21959;SDS011;11144;43.030;25.108;2022-08-25T09:01:55;4.93;;;1.80;;
21959;SDS011;11144;43.030;25.108;2022-08-25T09:03:32;4.07;;;1.75;;
21959;SDS011;11144;43.030;25.108;2022-08-25T09:05:13;3.67;;;2.10;;
21959;SDS011;11144;43.030;25.108;2022-08-25T09:06:51;7.65;;;2.00;;
21959;SDS011;11144;43.030;25.108;2022-08-25T09:08:27;6.07;;;2.38;;
21959;SDS011;11144;43.030;25.108;2022-08-25T09:10:01;9.13;;;2.00;;
21959;SDS011;11144;43.030;25.108;2022-08-25T09:11:41;6.20;;;2.72;;
21959;SDS011;11144;43.030;25.108;2022-08-25T09:13:27;4.93;;;2.05;;
21959;SDS011;11144;43.030;25.108;2022-08-25T09:15:12;3.17;;;1.85;;
21959;SDS011;11144;43.030;25.108;2022-08-25T09:16:55;6.57;;;2.38;;
21959;SDS011;11144;43.030;25.108;2022-08-25T09:18:34;4.50;;;1.85;;
21959;SDS011;11144;43.030;25.108;2022-08-25T09:22:25;5.07;;;2.17;;
21959;SDS011;11144;43.030;25.108;2022-08-25T09:24:14;8.98;;;2.63;;
21959;SDS011;11144;43.030;25.108;2022-08-25T09:25:59;7.47;;;2.50;;
21959;SDS011;11144;43.030;25.108;2022-08-25T09:27:52;4.22;;;1.83;;
21959;SDS011;11144;43.030;25.108;2022-08-25T09:29:38;4.72;;;1.92;;
21959;SDS011;11144;43.030;25.108;2022-08-25T09:31:24;6.32;;;1.85;;